< < Back
Terminal Aerodrome Forecast


Current Version              Previous Versions:   1  2  3  4  5  6  7  8  9  

Terminal Aerodrome Forecast

309
FTUS42 KTAE 012300
TAFABY
TAF
KABY 012334Z 0200/0224 27004KT P6SM VCTS SCT060CB SCT250
     FM020300 00000KT P6SM SCT250
     FM021500 30005KT P6SM FEW040
     FM021800 25006KT P6SM VCTS SCT050CB=



Latest METAR

684
SAUS70 KWBC 020900 RRD
MTRABY
METAR KABY 020853Z 00000KT 10SM CLR 23/22 A3005 RMK AO2 SLP173 6////
T02330222 55016 PNO $


USA.gov is the U.S. government's official web portal to all federal, state and local government web resources and services.